sensor_id;sensor_type;location;lat;lon;timestamp;P1;durP1;ratioP1;P2;durP2;ratioP2
22929;SDS011;11630;42.660;23.292;2023-07-30T00:00:41;7.37;;;2.70;;
22929;SDS011;11630;42.660;23.292;2023-07-30T00:03:12;3.70;;;3.20;;
22929;SDS011;11630;42.660;23.292;2023-07-30T00:05:43;3.03;;;2.70;;
22929;SDS011;11630;42.660;23.292;2023-07-30T00:08:21;4.33;;;3.43;;
22929;SDS011;11630;42.660;23.292;2023-07-30T00:10:51;6.50;;;4.17;;
22929;SDS011;11630;42.660;23.292;2023-07-30T00:13:21;6.97;;;3.07;;
22929;SDS011;11630;42.660;23.292;2023-07-30T00:15:52;4.77;;;2.60;;
22929;SDS011;11630;42.660;23.292;2023-07-30T00:18:23;4.20;;;3.20;;
22929;SDS011;11630;42.660;23.292;2023-07-30T00:20:58;4.77;;;3.30;;
22929;SDS011;11630;42.660;23.292;2023-07-30T00:23:28;4.83;;;3.30;;
22929;SDS011;11630;42.660;23.292;2023-07-30T00:25:58;4.60;;;2.97;;
22929;SDS011;11630;42.660;23.292;2023-07-30T00:28:29;5.30;;;2.93;;
22929;SDS011;11630;42.660;23.292;2023-07-30T00:31:00;7.67;;;3.13;;
22929;SDS011;11630;42.660;23.292;2023-07-30T00:33:31;5.20;;;3.00;;
22929;SDS011;11630;42.660;23.292;2023-07-30T00:36:02;3.27;;;2.90;;
22929;SDS011;11630;42.660;23.292;2023-07-30T00:38:32;5.60;;;3.00;;
22929;SDS011;11630;42.660;23.292;2023-07-30T00:41:09;4.27;;;2.80;;
22929;SDS011;11630;42.660;23.292;2023-07-30T00:43:40;6.63;;;2.87;;
22929;SDS011;11630;42.660;23.292;2023-07-30T00:46:11;6.43;;;3.27;;
22929;SDS011;11630;42.660;23.292;2023-07-30T00:48:43;4.00;;;2.53;;
22929;SDS011;11630;42.660;23.292;2023-07-30T00:51:14;3.10;;;2.80;;
22929;SDS011;11630;42.660;23.292;2023-07-30T00:53:45;7.17;;;3.03;;
22929;SDS011;11630;42.660;23.292;2023-07-30T00:56:16;3.60;;;2.77;;
22929;SDS011;11630;42.660;23.292;2023-07-30T00:58:47;3.20;;;2.80;;
22929;SDS011;11630;42.660;23.292;2023-07-30T01:01:18;5.00;;;3.00;;
22929;SDS011;11630;42.660;23.292;2023-07-30T01:03:56;4.07;;;3.03;;
22929;SDS011;11630;42.660;23.292;2023-07-30T01:06:27;3.63;;;2.67;;
22929;SDS011;11630;42.660;23.292;2023-07-30T01:08:58;3.23;;;2.80;;
22929;SDS011;11630;42.660;23.292;2023-07-30T01:11:29;3.10;;;2.90;;
22929;SDS011;11630;42.660;23.292;2023-07-30T01:13:59;3.30;;;2.83;;
22929;SDS011;11630;42.660;23.292;2023-07-30T01:16:28;3.10;;;2.77;;
22929;SDS011;11630;42.660;23.292;2023-07-30T01:18:59;8.03;;;3.40;;
22929;SDS011;11630;42.660;23.292;2023-07-30T01:21:30;7.67;;;2.90;;
22929;SDS011;11630;42.660;23.292;2023-07-30T01:24:06;3.87;;;2.80;;
22929;SDS011;11630;42.660;23.292;2023-07-30T01:29:16;3.13;;;2.87;;
22929;SDS011;11630;42.660;23.292;2023-07-30T01:31:57;4.13;;;3.10;;
22929;SDS011;11630;42.660;23.292;2023-07-30T01:34:26;3.37;;;2.77;;
22929;SDS011;11630;42.660;23.292;2023-07-30T01:36:57;3.50;;;2.87;;
22929;SDS011;11630;42.660;23.292;2023-07-30T01:39:29;3.60;;;3.30;;
22929;SDS011;11630;42.660;23.292;2023-07-30T01:42:00;3.37;;;2.97;;
22929;SDS011;11630;42.660;23.292;2023-07-30T01:44:32;3.30;;;2.97;;
22929;SDS011;11630;42.660;23.292;2023-07-30T01:47:03;3.73;;;2.87;;
22929;SDS011;11630;42.660;23.292;2023-07-30T01:49:34;5.47;;;2.80;;
22929;SDS011;11630;42.660;23.292;2023-07-30T01:52:05;4.77;;;2.87;;
22929;SDS011;11630;42.660;23.292;2023-07-30T01:54:37;3.33;;;3.00;;
22929;SDS011;11630;42.660;23.292;2023-07-30T01:57:08;3.03;;;2.73;;
22929;SDS011;11630;42.660;23.292;2023-07-30T01:59:39;3.87;;;2.97;;
22929;SDS011;11630;42.660;23.292;2023-07-30T02:02:08;4.00;;;3.40;;
22929;SDS011;11630;42.660;23.292;2023-07-30T02:04:38;4.87;;;3.10;;
22929;SDS011;11630;42.660;23.292;2023-07-30T02:07:08;4.83;;;3.60;;
22929;SDS011;11630;42.660;23.292;2023-07-30T02:09:38;3.73;;;3.10;;
22929;SDS011;11630;42.660;23.292;2023-07-30T02:12:08;4.77;;;3.07;;
22929;SDS011;11630;42.660;23.292;2023-07-30T02:14:39;3.70;;;3.40;;
22929;SDS011;11630;42.660;23.292;2023-07-30T02:17:11;5.07;;;3.40;;
22929;SDS011;11630;42.660;23.292;2023-07-30T02:19:42;3.47;;;3.17;;
22929;SDS011;11630;42.660;23.292;2023-07-30T02:22:11;3.47;;;3.17;;
22929;SDS011;11630;42.660;23.292;2023-07-30T02:24:42;4.07;;;3.20;;
22929;SDS011;11630;42.660;23.292;2023-07-30T02:27:16;6.07;;;3.60;;
22929;SDS011;11630;42.660;23.292;2023-07-30T02:29:47;4.10;;;3.20;;
22929;SDS011;11630;42.660;23.292;2023-07-30T02:32:20;5.33;;;3.53;;
22929;SDS011;11630;42.660;23.292;2023-07-30T02:34:50;3.77;;;3.30;;
22929;SDS011;11630;42.660;23.292;2023-07-30T02:37:21;7.10;;;3.67;;
22929;SDS011;11630;42.660;23.292;2023-07-30T02:39:52;5.53;;;3.30;;
22929;SDS011;11630;42.660;23.292;2023-07-30T02:42:23;5.07;;;3.37;;
22929;SDS011;11630;42.660;23.292;2023-07-30T02:44:53;5.67;;;3.53;;
22929;SDS011;11630;42.660;23.292;2023-07-30T02:47:24;5.37;;;3.43;;
22929;SDS011;11630;42.660;23.292;2023-07-30T02:49:55;3.63;;;3.23;;
22929;SDS011;11630;42.660;23.292;2023-07-30T02:52:26;6.47;;;3.63;;
22929;SDS011;11630;42.660;23.292;2023-07-30T02:54:57;6.57;;;3.60;;
22929;SDS011;11630;42.660;23.292;2023-07-30T02:57:28;6.87;;;3.43;;
22929;SDS011;11630;42.660;23.292;2023-07-30T02:59:58;8.77;;;3.83;;
22929;SDS011;11630;42.660;23.292;2023-07-30T03:02:29;4.53;;;3.73;;
22929;SDS011;11630;42.660;23.292;2023-07-30T03:05:00;5.27;;;3.50;;
22929;SDS011;11630;42.660;23.292;2023-07-30T03:07:30;3.80;;;3.40;;
22929;SDS011;11630;42.660;23.292;2023-07-30T03:10:00;3.70;;;3.30;;
22929;SDS011;11630;42.660;23.292;2023-07-30T03:12:31;5.60;;;3.30;;
22929;SDS011;11630;42.660;23.292;2023-07-30T03:15:01;3.53;;;3.00;;
22929;SDS011;11630;42.660;23.292;2023-07-30T03:17:30;6.97;;;4.73;;
22929;SDS011;11630;42.660;23.292;2023-07-30T03:20:01;8.10;;;4.27;;
22929;SDS011;11630;42.660;23.292;2023-07-30T03:22:32;7.77;;;3.30;;
22929;SDS011;11630;42.660;23.292;2023-07-30T03:25:03;3.60;;;3.30;;
22929;SDS011;11630;42.660;23.292;2023-07-30T03:27:35;8.77;;;3.70;;
22929;SDS011;11630;42.660;23.292;2023-07-30T03:30:06;6.60;;;4.03;;
22929;SDS011;11630;42.660;23.292;2023-07-30T03:32:37;4.13;;;3.43;;
22929;SDS011;11630;42.660;23.292;2023-07-30T03:35:08;3.67;;;3.37;;
22929;SDS011;11630;42.660;23.292;2023-07-30T03:37:39;3.43;;;3.13;;
22929;SDS011;11630;42.660;23.292;2023-07-30T03:40:10;3.93;;;2.77;;
22929;SDS011;11630;42.660;23.292;2023-07-30T03:42:41;5.30;;;4.03;;
22929;SDS011;11630;42.660;23.292;2023-07-30T03:45:12;4.10;;;3.70;;
22929;SDS011;11630;42.660;23.292;2023-07-30T03:47:42;3.77;;;3.37;;
22929;SDS011;11630;42.660;23.292;2023-07-30T03:50:13;5.20;;;3.47;;
22929;SDS011;11630;42.660;23.292;2023-07-30T03:52:44;3.57;;;3.23;;
22929;SDS011;11630;42.660;23.292;2023-07-30T03:55:15;3.70;;;2.90;;
22929;SDS011;11630;42.660;23.292;2023-07-30T03:57:48;6.77;;;2.90;;
22929;SDS011;11630;42.660;23.292;2023-07-30T04:00:19;4.87;;;3.03;;
22929;SDS011;11630;42.660;23.292;2023-07-30T04:02:49;4.03;;;3.43;;
22929;SDS011;11630;42.660;23.292;2023-07-30T04:05:20;9.03;;;3.87;;
22929;SDS011;11630;42.660;23.292;2023-07-30T04:07:50;3.83;;;3.50;;
22929;SDS011;11630;42.660;23.292;2023-07-30T04:10:21;4.53;;;3.60;;
22929;SDS011;11630;42.660;23.292;2023-07-30T04:12:51;5.27;;;4.07;;
22929;SDS011;11630;42.660;23.292;2023-07-30T04:15:21;4.77;;;3.30;;
22929;SDS011;11630;42.660;23.292;2023-07-30T04:17:53;7.73;;;3.90;;
22929;SDS011;11630;42.660;23.292;2023-07-30T04:20:23;9.93;;;4.00;;
22929;SDS011;11630;42.660;23.292;2023-07-30T04:22:54;6.37;;;3.37;;
22929;SDS011;11630;42.660;23.292;2023-07-30T04:25:25;7.90;;;4.23;;
22929;SDS011;11630;42.660;23.292;2023-07-30T04:27:57;6.83;;;4.00;;
22929;SDS011;11630;42.660;23.292;2023-07-30T04:30:27;5.70;;;4.53;;
22929;SDS011;11630;42.660;23.292;2023-07-30T04:32:58;4.23;;;3.70;;
22929;SDS011;11630;42.660;23.292;2023-07-30T04:35:30;5.83;;;3.97;;
22929;SDS011;11630;42.660;23.292;2023-07-30T04:38:01;8.03;;;3.60;;
22929;SDS011;11630;42.660;23.292;2023-07-30T04:40:32;6.60;;;4.30;;
22929;SDS011;11630;42.660;23.292;2023-07-30T04:43:02;7.13;;;4.80;;
22929;SDS011;11630;42.660;23.292;2023-07-30T04:45:33;7.20;;;5.00;;
22929;SDS011;11630;42.660;23.292;2023-07-30T04:48:03;11.80;;;4.60;;
22929;SDS011;11630;42.660;23.292;2023-07-30T04:50:34;5.67;;;4.77;;
22929;SDS011;11630;42.660;23.292;2023-07-30T04:53:05;8.57;;;4.60;;
22929;SDS011;11630;42.660;23.292;2023-07-30T04:55:37;6.70;;;5.00;;
22929;SDS011;11630;42.660;23.292;2023-07-30T04:58:09;8.43;;;5.47;;
22929;SDS011;11630;42.660;23.292;2023-07-30T05:00:40;4.87;;;4.30;;
22929;SDS011;11630;42.660;23.292;2023-07-30T05:03:11;7.83;;;4.60;;
22929;SDS011;11630;42.660;23.292;2023-07-30T05:05:41;5.77;;;4.63;;
22929;SDS011;11630;42.660;23.292;2023-07-30T05:08:12;7.17;;;4.97;;
22929;SDS011;11630;42.660;23.292;2023-07-30T05:10:43;5.27;;;4.77;;
22929;SDS011;11630;42.660;23.292;2023-07-30T05:13:14;7.77;;;5.13;;
22929;SDS011;11630;42.660;23.292;2023-07-30T05:15:45;4.63;;;4.23;;
22929;SDS011;11630;42.660;23.292;2023-07-30T05:18:16;6.33;;;4.73;;
22929;SDS011;11630;42.660;23.292;2023-07-30T05:20:47;10.70;;;4.40;;
22929;SDS011;11630;42.660;23.292;2023-07-30T05:23:18;5.57;;;4.97;;
22929;SDS011;11630;42.660;23.292;2023-07-30T05:25:49;11.27;;;5.07;;
22929;SDS011;11630;42.660;23.292;2023-07-30T05:28:18;8.33;;;5.17;;
22929;SDS011;11630;42.660;23.292;2023-07-30T05:30:49;6.20;;;4.50;;
22929;SDS011;11630;42.660;23.292;2023-07-30T05:33:20;5.07;;;4.57;;
22929;SDS011;11630;42.660;23.292;2023-07-30T05:35:51;11.30;;;4.93;;
22929;SDS011;11630;42.660;23.292;2023-07-30T05:38:22;10.03;;;4.67;;
22929;SDS011;11630;42.660;23.292;2023-07-30T05:40:53;6.60;;;4.50;;
22929;SDS011;11630;42.660;23.292;2023-07-30T05:43:24;6.27;;;5.10;;
22929;SDS011;11630;42.660;23.292;2023-07-30T05:45:55;7.23;;;5.23;;
22929;SDS011;11630;42.660;23.292;2023-07-30T05:48:25;6.90;;;4.80;;
22929;SDS011;11630;42.660;23.292;2023-07-30T05:50:55;6.50;;;4.87;;
22929;SDS011;11630;42.660;23.292;2023-07-30T05:53:26;10.13;;;4.20;;
22929;SDS011;11630;42.660;23.292;2023-07-30T05:55:57;8.97;;;4.73;;
22929;SDS011;11630;42.660;23.292;2023-07-30T05:58:28;4.93;;;4.00;;
22929;SDS011;11630;42.660;23.292;2023-07-30T06:00:59;8.30;;;4.80;;
22929;SDS011;11630;42.660;23.292;2023-07-30T06:03:30;4.73;;;4.23;;
22929;SDS011;11630;42.660;23.292;2023-07-30T06:06:01;4.23;;;3.83;;
22929;SDS011;11630;42.660;23.292;2023-07-30T06:08:33;6.70;;;4.13;;
22929;SDS011;11630;42.660;23.292;2023-07-30T06:11:02;12.77;;;5.30;;
22929;SDS011;11630;42.660;23.292;2023-07-30T06:13:33;4.37;;;3.97;;
22929;SDS011;11630;42.660;23.292;2023-07-30T06:16:04;4.77;;;3.63;;
22929;SDS011;11630;42.660;23.292;2023-07-30T06:18:35;5.83;;;4.10;;
22929;SDS011;11630;42.660;23.292;2023-07-30T06:21:05;4.40;;;3.90;;
22929;SDS011;11630;42.660;23.292;2023-07-30T06:23:36;8.77;;;4.40;;
22929;SDS011;11630;42.660;23.292;2023-07-30T06:26:07;6.13;;;4.83;;
22929;SDS011;11630;42.660;23.292;2023-07-30T06:28:42;5.57;;;4.53;;
22929;SDS011;11630;42.660;23.292;2023-07-30T06:31:12;5.97;;;3.67;;
22929;SDS011;11630;42.660;23.292;2023-07-30T06:33:43;5.63;;;3.57;;
22929;SDS011;11630;42.660;23.292;2023-07-30T06:36:14;3.57;;;3.27;;
22929;SDS011;11630;42.660;23.292;2023-07-30T06:38:44;8.70;;;4.03;;
22929;SDS011;11630;42.660;23.292;2023-07-30T06:41:14;5.77;;;4.10;;
22929;SDS011;11630;42.660;23.292;2023-07-30T06:43:45;5.33;;;4.47;;
22929;SDS011;11630;42.660;23.292;2023-07-30T06:46:16;7.37;;;3.83;;
22929;SDS011;11630;42.660;23.292;2023-07-30T06:48:47;4.33;;;3.43;;
22929;SDS011;11630;42.660;23.292;2023-07-30T06:51:23;7.63;;;3.87;;
22929;SDS011;11630;42.660;23.292;2023-07-30T06:53:52;4.57;;;3.27;;
22929;SDS011;11630;42.660;23.292;2023-07-30T06:56:24;4.73;;;3.03;;
22929;SDS011;11630;42.660;23.292;2023-07-30T06:58:55;5.50;;;4.07;;
22929;SDS011;11630;42.660;23.292;2023-07-30T07:01:26;3.87;;;3.50;;
22929;SDS011;11630;42.660;23.292;2023-07-30T07:03:58;4.50;;;3.57;;
22929;SDS011;11630;42.660;23.292;2023-07-30T07:06:29;6.93;;;3.90;;
22929;SDS011;11630;42.660;23.292;2023-07-30T07:09:00;4.60;;;3.60;;
22929;SDS011;11630;42.660;23.292;2023-07-30T07:11:30;4.67;;;3.60;;
22929;SDS011;11630;42.660;23.292;2023-07-30T07:14:01;6.87;;;3.27;;
22929;SDS011;11630;42.660;23.292;2023-07-30T07:16:31;3.47;;;3.17;;
22929;SDS011;11630;42.660;23.292;2023-07-30T07:19:02;3.80;;;3.47;;
22929;SDS011;11630;42.660;23.292;2023-07-30T07:21:33;4.07;;;3.67;;
22929;SDS011;11630;42.660;23.292;2023-07-30T07:24:04;4.07;;;3.50;;
22929;SDS011;11630;42.660;23.292;2023-07-30T07:26:34;7.43;;;3.30;;
22929;SDS011;11630;42.660;23.292;2023-07-30T07:29:04;5.70;;;3.80;;
22929;SDS011;11630;42.660;23.292;2023-07-30T07:31:34;3.67;;;3.20;;
22929;SDS011;11630;42.660;23.292;2023-07-30T07:34:05;3.87;;;3.50;;
22929;SDS011;11630;42.660;23.292;2023-07-30T07:36:36;4.33;;;3.70;;
22929;SDS011;11630;42.660;23.292;2023-07-30T07:39:06;4.93;;;4.47;;
22929;SDS011;11630;42.660;23.292;2023-07-30T07:41:38;7.03;;;3.17;;
22929;SDS011;11630;42.660;23.292;2023-07-30T07:44:09;5.50;;;3.70;;
22929;SDS011;11630;42.660;23.292;2023-07-30T07:46:40;4.60;;;3.70;;
22929;SDS011;11630;42.660;23.292;2023-07-30T07:49:11;10.85;;;4.35;;
22929;SDS011;11630;42.660;23.292;2023-07-30T07:51:41;8.15;;;4.15;;
22929;SDS011;11630;42.660;23.292;2023-07-30T07:54:12;5.10;;;4.05;;
22929;SDS011;11630;42.660;23.292;2023-07-30T07:56:42;4.37;;;3.30;;
22929;SDS011;11630;42.660;23.292;2023-07-30T07:59:13;4.87;;;3.52;;
22929;SDS011;11630;42.660;23.292;2023-07-30T08:01:44;4.30;;;3.67;;
22929;SDS011;11630;42.660;23.292;2023-07-30T08:04:15;4.45;;;3.50;;
22929;SDS011;11630;42.660;23.292;2023-07-30T08:06:48;6.50;;;3.75;;
22929;SDS011;11630;42.660;23.292;2023-07-30T08:09:18;3.90;;;3.42;;
22929;SDS011;11630;42.660;23.292;2023-07-30T08:11:49;3.50;;;3.20;;
22929;SDS011;11630;42.660;23.292;2023-07-30T08:14:20;3.73;;;3.20;;
22929;SDS011;11630;42.660;23.292;2023-07-30T08:16:51;5.37;;;3.35;;
22929;SDS011;11630;42.660;23.292;2023-07-30T08:19:22;7.87;;;3.75;;
22929;SDS011;11630;42.660;23.292;2023-07-30T08:21:53;5.62;;;3.12;;
22929;SDS011;11630;42.660;23.292;2023-07-30T08:24:26;4.03;;;3.08;;
22929;SDS011;11630;42.660;23.292;2023-07-30T08:26:56;4.55;;;3.55;;
22929;SDS011;11630;42.660;23.292;2023-07-30T08:29:27;4.58;;;3.67;;
22929;SDS011;11630;42.660;23.292;2023-07-30T08:32:00;5.78;;;3.62;;
22929;SDS011;11630;42.660;23.292;2023-07-30T08:34:31;4.85;;;3.17;;
22929;SDS011;11630;42.660;23.292;2023-07-30T08:37:02;6.08;;;3.65;;
22929;SDS011;11630;42.660;23.292;2023-07-30T08:39:33;4.70;;;3.37;;
22929;SDS011;11630;42.660;23.292;2023-07-30T08:42:04;3.30;;;3.00;;
22929;SDS011;11630;42.660;23.292;2023-07-30T08:44:34;8.43;;;3.45;;
22929;SDS011;11630;42.660;23.292;2023-07-30T08:47:05;4.55;;;3.15;;
22929;SDS011;11630;42.660;23.292;2023-07-30T08:49:36;9.15;;;3.17;;
22929;SDS011;11630;42.660;23.292;2023-07-30T08:52:08;4.50;;;3.00;;
22929;SDS011;11630;42.660;23.292;2023-07-30T08:54:39;4.95;;;3.20;;
22929;SDS011;11630;42.660;23.292;2023-07-30T08:57:10;3.45;;;3.12;;
22929;SDS011;11630;42.660;23.292;2023-07-30T08:59:47;4.58;;;3.37;;
22929;SDS011;11630;42.660;23.292;2023-07-30T09:02:26;5.47;;;3.60;;
22929;SDS011;11630;42.660;23.292;2023-07-30T09:04:56;6.65;;;4.17;;
22929;SDS011;11630;42.660;23.292;2023-07-30T09:07:27;8.68;;;3.92;;
22929;SDS011;11630;42.660;23.292;2023-07-30T09:09:57;3.70;;;3.40;;
22929;SDS011;11630;42.660;23.292;2023-07-30T09:12:31;6.10;;;3.17;;
22929;SDS011;11630;42.660;23.292;2023-07-30T09:15:04;10.43;;;3.45;;
22929;SDS011;11630;42.660;23.292;2023-07-30T09:17:37;3.77;;;3.40;;
22929;SDS011;11630;42.660;23.292;2023-07-30T09:20:08;8.73;;;3.80;;
22929;SDS011;11630;42.660;23.292;2023-07-30T09:22:39;5.25;;;3.37;;
22929;SDS011;11630;42.660;23.292;2023-07-30T09:25:09;3.83;;;3.22;;
22929;SDS011;11630;42.660;23.292;2023-07-30T09:27:44;3.45;;;3.15;;
22929;SDS011;11630;42.660;23.292;2023-07-30T09:30:22;3.62;;;3.30;;
22929;SDS011;11630;42.660;23.292;2023-07-30T09:32:57;3.50;;;3.20;;
22929;SDS011;11630;42.660;23.292;2023-07-30T09:35:28;11.70;;;3.10;;
22929;SDS011;11630;42.660;23.292;2023-07-30T09:38:01;7.92;;;3.90;;
22929;SDS011;11630;42.660;23.292;2023-07-30T09:40:33;4.50;;;3.10;;
22929;SDS011;11630;42.660;23.292;2023-07-30T09:43:04;5.62;;;3.52;;
22929;SDS011;11630;42.660;23.292;2023-07-30T09:45:35;3.62;;;3.33;;
22929;SDS011;11630;42.660;23.292;2023-07-30T09:48:06;7.20;;;3.90;;
22929;SDS011;11630;42.660;23.292;2023-07-30T09:50:39;5.08;;;3.27;;
22929;SDS011;11630;42.660;23.292;2023-07-30T09:53:10;4.25;;;3.25;;
22929;SDS011;11630;42.660;23.292;2023-07-30T09:55:42;5.75;;;3.47;;
22929;SDS011;11630;42.660;23.292;2023-07-30T09:58:13;4.55;;;3.67;;
22929;SDS011;11630;42.660;23.292;2023-07-30T10:00:46;8.63;;;3.55;;
22929;SDS011;11630;42.660;23.292;2023-07-30T10:03:20;3.15;;;2.67;;
22929;SDS011;11630;42.660;23.292;2023-07-30T10:05:51;18.25;;;3.95;;
22929;SDS011;11630;42.660;23.292;2023-07-30T10:08:24;4.05;;;3.05;;
22929;SDS011;11630;42.660;23.292;2023-07-30T10:10:55;5.35;;;3.87;;
22929;SDS011;11630;42.660;23.292;2023-07-30T10:13:27;3.10;;;2.80;;
22929;SDS011;11630;42.660;23.292;2023-07-30T10:15:58;5.85;;;3.62;;
22929;SDS011;11630;42.660;23.292;2023-07-30T10:18:33;3.98;;;3.25;;
22929;SDS011;11630;42.660;23.292;2023-07-30T10:21:07;4.08;;;3.20;;
22929;SDS011;11630;42.660;23.292;2023-07-30T10:23:58;5.28;;;3.33;;
22929;SDS011;11630;42.660;23.292;2023-07-30T10:26:34;4.95;;;3.33;;
22929;SDS011;11630;42.660;23.292;2023-07-30T10:29:10;5.65;;;3.55;;
22929;SDS011;11630;42.660;23.292;2023-07-30T10:31:53;5.58;;;3.52;;
22929;SDS011;11630;42.660;23.292;2023-07-30T10:34:26;6.75;;;3.37;;
22929;SDS011;11630;42.660;23.292;2023-07-30T10:36:58;5.40;;;3.20;;
22929;SDS011;11630;42.660;23.292;2023-07-30T10:39:31;4.37;;;3.67;;
22929;SDS011;11630;42.660;23.292;2023-07-30T10:42:02;5.58;;;3.60;;
22929;SDS011;11630;42.660;23.292;2023-07-30T10:44:34;4.35;;;3.10;;
22929;SDS011;11630;42.660;23.292;2023-07-30T10:47:05;4.47;;;3.37;;
22929;SDS011;11630;42.660;23.292;2023-07-30T10:49:36;3.92;;;3.47;;
22929;SDS011;11630;42.660;23.292;2023-07-30T10:52:08;3.85;;;3.50;;
22929;SDS011;11630;42.660;23.292;2023-07-30T10:54:39;4.87;;;3.40;;
22929;SDS011;11630;42.660;23.292;2023-07-30T10:57:10;4.25;;;3.83;;
22929;SDS011;11630;42.660;23.292;2023-07-30T10:59:41;5.45;;;3.15;;
22929;SDS011;11630;42.660;23.292;2023-07-30T11:02:11;9.40;;;3.65;;
22929;SDS011;11630;42.660;23.292;2023-07-30T11:04:44;3.60;;;3.30;;
22929;SDS011;11630;42.660;23.292;2023-07-30T11:07:16;4.47;;;3.58;;
22929;SDS011;11630;42.660;23.292;2023-07-30T11:09:57;8.10;;;3.90;;
22929;SDS011;11630;42.660;23.292;2023-07-30T11:12:30;4.87;;;3.52;;
22929;SDS011;11630;42.660;23.292;2023-07-30T11:15:02;5.42;;;4.03;;
22929;SDS011;11630;42.660;23.292;2023-07-30T11:17:34;6.78;;;3.22;;
22929;SDS011;11630;42.660;23.292;2023-07-30T11:20:05;12.90;;;4.65;;
22929;SDS011;11630;42.660;23.292;2023-07-30T11:22:36;6.72;;;3.52;;
22929;SDS011;11630;42.660;23.292;2023-07-30T11:25:15;3.87;;;3.37;;
22929;SDS011;11630;42.660;23.292;2023-07-30T11:27:48;4.55;;;4.03;;
22929;SDS011;11630;42.660;23.292;2023-07-30T11:30:19;4.67;;;3.33;;
22929;SDS011;11630;42.660;23.292;2023-07-30T11:32:48;4.33;;;3.72;;
22929;SDS011;11630;42.660;23.292;2023-07-30T11:35:19;6.10;;;3.45;;
22929;SDS011;11630;42.660;23.292;2023-07-30T11:37:51;4.17;;;3.75;;
22929;SDS011;11630;42.660;23.292;2023-07-30T11:40:22;4.85;;;3.62;;
22929;SDS011;11630;42.660;23.292;2023-07-30T11:42:53;7.28;;;3.70;;
22929;SDS011;11630;42.660;23.292;2023-07-30T11:45:24;7.08;;;3.42;;
22929;SDS011;11630;42.660;23.292;2023-07-30T11:48:05;4.37;;;3.47;;
22929;SDS011;11630;42.660;23.292;2023-07-30T11:50:46;5.33;;;3.70;;
22929;SDS011;11630;42.660;23.292;2023-07-30T11:53:20;6.62;;;4.17;;
22929;SDS011;11630;42.660;23.292;2023-07-30T11:55:51;6.12;;;3.75;;
22929;SDS011;11630;42.660;23.292;2023-07-30T11:58:22;6.00;;;3.65;;
22929;SDS011;11630;42.660;23.292;2023-07-30T12:00:54;3.95;;;3.55;;
22929;SDS011;11630;42.660;23.292;2023-07-30T12:03:25;5.65;;;4.08;;
22929;SDS011;11630;42.660;23.292;2023-07-30T12:05:56;8.00;;;3.90;;
22929;SDS011;11630;42.660;23.292;2023-07-30T12:08:28;3.98;;;3.58;;
22929;SDS011;11630;42.660;23.292;2023-07-30T12:11:02;5.40;;;3.37;;
22929;SDS011;11630;42.660;23.292;2023-07-30T12:13:31;9.78;;;4.05;;
22929;SDS011;11630;42.660;23.292;2023-07-30T12:16:01;7.90;;;4.60;;
22929;SDS011;11630;42.660;23.292;2023-07-30T12:18:32;7.28;;;4.30;;
22929;SDS011;11630;42.660;23.292;2023-07-30T12:21:03;9.33;;;4.20;;
22929;SDS011;11630;42.660;23.292;2023-07-30T12:23:35;5.40;;;4.20;;
22929;SDS011;11630;42.660;23.292;2023-07-30T12:26:06;5.95;;;3.50;;
22929;SDS011;11630;42.660;23.292;2023-07-30T12:28:37;4.60;;;3.52;;
22929;SDS011;11630;42.660;23.292;2023-07-30T12:31:08;6.55;;;4.20;;
22929;SDS011;11630;42.660;23.292;2023-07-30T12:33:39;4.85;;;4.35;;
22929;SDS011;11630;42.660;23.292;2023-07-30T12:36:10;5.33;;;4.25;;
22929;SDS011;11630;42.660;23.292;2023-07-30T12:38:40;6.80;;;3.77;;
22929;SDS011;11630;42.660;23.292;2023-07-30T12:41:11;9.88;;;4.17;;
22929;SDS011;11630;42.660;23.292;2023-07-30T12:43:42;8.83;;;3.72;;
22929;SDS011;11630;42.660;23.292;2023-07-30T12:46:13;7.67;;;4.55;;
22929;SDS011;11630;42.660;23.292;2023-07-30T12:48:43;4.95;;;4.17;;
22929;SDS011;11630;42.660;23.292;2023-07-30T12:51:18;4.53;;;3.75;;
22929;SDS011;11630;42.660;23.292;2023-07-30T12:53:49;6.05;;;4.08;;
22929;SDS011;11630;42.660;23.292;2023-07-30T12:56:20;6.70;;;3.90;;
22929;SDS011;11630;42.660;23.292;2023-07-30T12:58:51;5.40;;;4.05;;
22929;SDS011;11630;42.660;23.292;2023-07-30T13:01:23;7.28;;;5.15;;
22929;SDS011;11630;42.660;23.292;2023-07-30T13:03:54;4.80;;;3.45;;
22929;SDS011;11630;42.660;23.292;2023-07-30T13:06:27;16.95;;;5.10;;
22929;SDS011;11630;42.660;23.292;2023-07-30T13:08:58;10.25;;;4.17;;
22929;SDS011;11630;42.660;23.292;2023-07-30T13:11:29;7.70;;;4.22;;
22929;SDS011;11630;42.660;23.292;2023-07-30T13:14:00;5.45;;;4.15;;
22929;SDS011;11630;42.660;23.292;2023-07-30T13:16:31;7.00;;;4.37;;
22929;SDS011;11630;42.660;23.292;2023-07-30T13:19:01;5.62;;;3.60;;
22929;SDS011;11630;42.660;23.292;2023-07-30T13:21:33;4.87;;;4.25;;
22929;SDS011;11630;42.660;23.292;2023-07-30T13:24:04;7.05;;;4.95;;
22929;SDS011;11630;42.660;23.292;2023-07-30T13:26:35;5.30;;;4.80;;
22929;SDS011;11630;42.660;23.292;2023-07-30T13:29:05;5.08;;;4.08;;
22929;SDS011;11630;42.660;23.292;2023-07-30T13:31:36;5.45;;;4.55;;
22929;SDS011;11630;42.660;23.292;2023-07-30T13:34:07;5.85;;;4.35;;
22929;SDS011;11630;42.660;23.292;2023-07-30T13:36:38;4.85;;;4.30;;
22929;SDS011;11630;42.660;23.292;2023-07-30T13:39:09;7.28;;;4.22;;
22929;SDS011;11630;42.660;23.292;2023-07-30T13:41:40;8.05;;;4.35;;
22929;SDS011;11630;42.660;23.292;2023-07-30T13:44:16;5.45;;;4.12;;
22929;SDS011;11630;42.660;23.292;2023-07-30T13:46:47;8.80;;;4.10;;
22929;SDS011;11630;42.660;23.292;2023-07-30T13:49:18;10.85;;;6.00;;
22929;SDS011;11630;42.660;23.292;2023-07-30T13:51:49;4.97;;;4.45;;
22929;SDS011;11630;42.660;23.292;2023-07-30T13:54:20;4.60;;;4.20;;
22929;SDS011;11630;42.660;23.292;2023-07-30T13:56:50;7.33;;;4.80;;
22929;SDS011;11630;42.660;23.292;2023-07-30T13:59:21;13.38;;;4.87;;
22929;SDS011;11630;42.660;23.292;2023-07-30T14:01:53;6.55;;;4.53;;
22929;SDS011;11630;42.660;23.292;2023-07-30T14:04:23;15.00;;;5.47;;
22929;SDS011;11630;42.660;23.292;2023-07-30T14:06:54;13.10;;;4.95;;
22929;SDS011;11630;42.660;23.292;2023-07-30T14:09:25;7.20;;;4.72;;
22929;SDS011;11630;42.660;23.292;2023-07-30T14:11:56;5.12;;;4.30;;
22929;SDS011;11630;42.660;23.292;2023-07-30T14:14:27;5.75;;;4.20;;
22929;SDS011;11630;42.660;23.292;2023-07-30T14:16:58;6.75;;;4.85;;
22929;SDS011;11630;42.660;23.292;2023-07-30T14:19:29;6.17;;;4.78;;
22929;SDS011;11630;42.660;23.292;2023-07-30T14:22:01;6.33;;;5.08;;
22929;SDS011;11630;42.660;23.292;2023-07-30T14:24:31;5.35;;;4.85;;
22929;SDS011;11630;42.660;23.292;2023-07-30T14:27:05;6.97;;;4.87;;
22929;SDS011;11630;42.660;23.292;2023-07-30T14:29:36;7.33;;;5.28;;
22929;SDS011;11630;42.660;23.292;2023-07-30T14:32:07;8.25;;;4.70;;
22929;SDS011;11630;42.660;23.292;2023-07-30T14:34:38;6.42;;;4.80;;
22929;SDS011;11630;42.660;23.292;2023-07-30T14:37:09;5.70;;;4.55;;
22929;SDS011;11630;42.660;23.292;2023-07-30T14:39:42;8.28;;;4.87;;
22929;SDS011;11630;42.660;23.292;2023-07-30T14:42:14;5.30;;;4.80;;
22929;SDS011;11630;42.660;23.292;2023-07-30T14:44:45;5.80;;;4.78;;
22929;SDS011;11630;42.660;23.292;2023-07-30T14:47:16;8.25;;;4.83;;
22929;SDS011;11630;42.660;23.292;2023-07-30T14:49:48;19.20;;;6.22;;
22929;SDS011;11630;42.660;23.292;2023-07-30T14:52:18;4.45;;;4.05;;
22929;SDS011;11630;42.660;23.292;2023-07-30T14:54:49;6.97;;;4.20;;
22929;SDS011;11630;42.660;23.292;2023-07-30T14:57:20;5.40;;;4.20;;
22929;SDS011;11630;42.660;23.292;2023-07-30T14:59:50;8.53;;;4.90;;